"TOA5","C150","CR1000","43625","CR1000.Std.22","CPU:247411_r6_eppley7.CR1","60899","eppley_data"
"TIMESTAMP","RECORD","PIR_net","Case_Temp_K","PSP_in_Avg","PSP_in_Min","PSP_in_Max","PIR_in_Avg","PIR_in_Min","PIR_in_Max","wd_2minavg","ws_2minavg","AirTC","RH","BP_mbar"
"TS","RN","","","","","","","","","","","Deg C","Percent","Millibar"
"","","Smp","Smp","Avg","Min","Max","Avg","Min","Max","Smp","Smp","Smp","Smp","Smp"
"2018-10-11 02:10:00",34160,"NAN","NAN",176.7,170.2,182.1,"NAN","NAN","NAN",116,1.66,-10.45,67.93,965
"2018-10-11 02:20:00",34161,"NAN","NAN",167.6,161.9,172.6,"NAN","NAN","NAN",172.4,4.453,-10.76,67,965
"2018-10-11 02:30:00",34162,"NAN","NAN",166.5,162.3,170.2,"NAN","NAN","NAN",194.5,6.731,-10.46,65.12,965
"2018-10-11 02:40:00",34163,"NAN","NAN",167.5,163.1,170.2,"NAN","NAN","NAN",187.8,4.595,-10.56,67.71,965
"2018-10-11 02:50:00",34164,"NAN","NAN",160.2,156,163.5,"NAN","NAN","NAN",169.9,8.3,-11.21,76.34,965
"2018-10-11 03:00:00",34165,"NAN","NAN",148.3,141.4,156,"NAN","NAN","NAN",170.2,8.08,-11.24,76.14,965
"2018-10-11 03:10:00",34166,"NAN","NAN",135.4,132.3,141,"NAN","NAN","NAN",166,5.063,-10.97,70.24,965
"2018-10-11 03:20:00",34167,"NAN","NAN",129.4,128.3,132.7,"NAN","NAN","NAN",178.3,5.344,-10.83,71.6,965
"2018-10-11 03:30:00",34168,"NAN","NAN",131.8,129.1,133.1,"NAN","NAN","NAN",189.1,2.519,-10.9,71.47,965
"2018-10-11 03:40:00",34169,"NAN","NAN",133.4,131.9,135.9,"NAN","NAN","NAN",174.1,4.724,-11.07,73.42,965
"2018-10-11 03:50:00",34170,"NAN","NAN",138.6,135.9,142.2,"NAN","NAN","NAN",180.5,10.24,-11.48,80.4,965
"2018-10-11 04:00:00",34171,"NAN","NAN",141.4,137.4,143.4,"NAN","NAN","NAN",172,9.06,-11.31,75.53,965
"2018-10-11 04:10:00",34172,"NAN","NAN",132.2,127.6,137,"NAN","NAN","NAN",171.3,6.861,-10.97,71.14,965
"2018-10-11 04:20:00",34173,"NAN","NAN",117.8,110.6,127.6,"NAN","NAN","NAN",170,6.128,-11.14,69.77,965
"2018-10-11 04:30:00",34174,"NAN","NAN",104.9,100.7,110.2,"NAN","NAN","NAN",169.9,5.381,-11.14,68.82,965
"2018-10-11 04:40:00",34175,"NAN","NAN",97.2,92.8,100.7,"NAN","NAN","NAN",171.5,4.679,-10.66,64.18,965
"2018-10-11 04:50:00",34176,"NAN","NAN",89.2,86.1,92.8,"NAN","NAN","NAN",161.7,4.323,-10.35,62.16,965
"2018-10-11 05:00:00",34177,"NAN","NAN",83.5,81,86.5,"NAN","NAN","NAN",143.9,6.51,-10.79,67.35,965
"2018-10-11 05:10:00",34178,"NAN","NAN",78.86,77.41,80.6,"NAN","NAN","NAN",130.6,5.547,-10.66,65.03,965
"2018-10-11 05:20:00",34179,"NAN","NAN",75.87,74.65,77.41,"NAN","NAN","NAN",119.7,4.455,-10.18,60.32,965
"2018-10-11 05:30:00",34180,"NAN","NAN",73.91,71.49,75.04,"NAN","NAN","NAN",120.2,3.88,-10.86,67.42,965
"2018-10-11 05:40:00",34181,"NAN","NAN",69.34,67.14,71.49,"NAN","NAN","NAN",208.5,1.191,-11,67.86,965
"2018-10-11 05:50:00",34182,"NAN","NAN",65.46,64.38,67.14,"NAN","NAN","NAN",200.4,1.697,-10.83,64.45,965
"2018-10-11 06:00:00",34183,"NAN","NAN",63.05,60.83,65.17,"NAN","NAN","NAN",245.3,2.059,-11.37,67.14,964
"2018-10-11 06:10:00",34184,"NAN","NAN",60.4,59.64,60.83,"NAN","NAN","NAN",255.3,2.794,-11.2,65.71,964
"2018-10-11 06:20:00",34185,"NAN","NAN",57.58,55.69,59.64,"NAN","NAN","NAN",228.1,1.976,-11.65,67.42,964
"2018-10-11 06:30:00",34186,"NAN","NAN",54.95,54.9,55.69,"NAN","NAN","NAN",281.5,1.409,-12.16,68.88,965
"2018-10-11 06:40:00",34187,"NAN","NAN",52.32,49.37,54.9,"NAN","NAN","NAN",346.1,4.47,-12.74,74.14,965